Time;durP1;ratioP1;P1;durP2;ratioP2;P2;SDS_P1;SDS_P2;PMS_P1;PMS_P2;Temp;Humidity;BMP_temperature;BMP_pressure;BME280_temperature;BME280_humidity;BME280_pressure;Samples;Min_cycle;Max_cycle;Signal;HPM_P1;HPM_P2
2023/01/03 00:02:25;;;;;;;1.87;1.23;;;;;;;9.66;80.42;101157.49;1589953;88;21120;-77
2023/01/03 00:04:52;;;;;;;2.13;1.10;;;;;;;9.65;80.65;101154.47;1590237;88;21087;-77
2023/01/03 00:07:32;;;;;;;2.20;1.10;;;;;;;9.65;80.74;101149.69;1590215;88;21059;-82
2023/01/03 00:09:49;;;;;;;1.40;0.90;;;;;;;9.62;80.83;101145.37;1588316;88;21532;-77
2023/01/03 00:12:22;;;;;;;1.87;1.20;;;;;;;9.61;81.09;101145.80;1590269;88;21609;-77
2023/01/03 00:14:49;;;;;;;2.10;1.20;;;;;;;9.59;80.96;101140.21;1590239;88;21827;-78
2023/01/03 00:17:18;;;;;;;2.00;1.10;;;;;;;9.58;81.17;101158.09;1590656;89;21335;-78
2023/01/03 00:19:46;;;;;;;3.23;1.00;;;;;;;9.54;81.30;101158.62;1590355;88;21104;-77
2023/01/03 00:22:14;;;;;;;1.57;1.10;;;;;;;9.54;81.60;101158.62;1591064;90;21048;-78
2023/01/03 00:24:46;;;;;;;1.90;1.17;;;;;;;9.53;81.62;101172.61;1590257;88;21110;-78
2023/01/03 00:27:15;;;;;;;2.83;1.20;;;;;;;9.50;81.75;101177.88;1591089;88;21137;-78
2023/01/03 00:29:43;;;;;;;1.30;1.00;;;;;;;9.49;81.95;101186.63;1590880;88;21079;-78
2023/01/03 00:32:10;;;;;;;1.23;1.10;;;;;;;9.48;82.06;101191.91;1591299;88;21491;-78
2023/01/03 00:34:38;;;;;;;1.03;0.93;;;;;;;9.47;82.02;101194.09;1590583;88;21695;-78
2023/01/03 00:37:05;;;;;;;1.93;1.40;;;;;;;9.46;82.18;101195.00;1595241;88;21190;-79
2023/01/03 00:39:33;;;;;;;1.80;1.30;;;;;;;9.46;82.30;101201.09;1633697;87;21137;-78
2023/01/03 00:42:00;;;;;;;1.73;1.30;;;;;;;9.46;82.43;101208.08;1635584;86;21091;-78
2023/01/03 00:44:27;;;;;;;1.87;1.40;;;;;;;9.44;82.48;101200.70;1636978;87;21583;-78
2023/01/03 00:46:54;;;;;;;1.97;1.77;;;;;;;9.44;82.50;101202.00;1606926;88;21114;-78
2023/01/03 00:49:22;;;;;;;1.93;1.73;;;;;;;9.43;82.70;101207.69;1589583;88;21091;-78
2023/01/03 00:51:52;;;;;;;2.23;1.73;;;;;;;9.44;82.91;101204.62;1591421;89;21246;-78
2023/01/03 00:54:20;;;;;;;4.17;1.70;;;;;;;9.45;82.99;101208.53;1591323;89;21098;-78
2023/01/03 00:56:50;;;;;;;2.80;2.03;;;;;;;9.45;83.12;101209.84;1589938;89;21079;-78
2023/01/03 00:59:20;;;;;;;2.65;2.00;;;;;;;9.46;83.14;101210.25;1591622;88;21103;-78
2023/01/03 01:01:54;;;;;;;2.90;2.40;;;;;;;9.47;83.39;101210.65;1591097;90;21704;-77
2023/01/03 01:04:29;;;;;;;3.17;2.23;;;;;;;9.47;83.37;101213.27;1591484;89;21381;-78
2023/01/03 01:07:00;;;;;;;2.20;1.90;;;;;;;9.46;83.63;101217.23;1590983;88;21094;-78
2023/01/03 01:09:32;;;;;;;2.57;1.90;;;;;;;9.45;83.69;101217.69;1590703;88;21055;-77
2023/01/03 01:11:59;;;;;;;2.27;1.90;;;;;;;9.44;83.83;101220.33;1590517;90;21094;-78
2023/01/03 01:14:32;;;;;;;4.37;1.70;;;;;;;9.45;84.07;101233.81;1590749;88;21075;-77
2023/01/03 01:17:06;;;;;;;2.27;1.93;;;;;;;9.45;84.16;101243.86;1590168;88;21109;-77
2023/01/03 01:19:40;;;;;;;1.77;1.60;;;;;;;9.45;84.17;101236.01;1587920;88;21618;-77
2023/01/03 01:22:09;;;;;;;0.70;0.60;;;;;;;9.44;84.30;101241.25;1588660;88;21588;-77
2023/01/03 01:24:36;;;;;;;2.17;0.60;;;;;;;9.43;83.95;101246.09;1588949;90;21534;-77
2023/01/03 01:27:04;;;;;;;1.37;0.50;;;;;;;9.44;83.68;101251.72;1589113;88;21094;-78
2023/01/03 01:29:31;;;;;;;1.10;0.60;;;;;;;9.42;83.52;101260.90;1635934;86;21106;-77
2023/01/03 01:31:59;;;;;;;1.90;0.40;;;;;;;9.39;83.46;101262.27;1633367;87;21089;-78
2023/01/03 01:34:29;;;;;;;1.50;0.60;;;;;;;9.36;83.61;101272.34;1608677;87;21130;-80
2023/01/03 01:36:56;;;;;;;;;;;;;;;9.32;83.54;101270.69;1637049;86;21477;-80
2023/01/03 01:39:27;;;;;;;1.53;0.50;;;;;;;9.25;83.76;101270.81;1636056;87;20544;-75
2023/01/03 01:45:08;;;;;;;2.50;0.60;;;;;;;8.82;83.47;101275.47;1634044;87;21748;-77
2023/01/03 01:47:56;;;;;;;3.43;0.60;;;;;;;8.59;83.99;101276.69;1634102;86;21072;-77
2023/01/03 01:50:44;;;;;;;3.33;1.00;;;;;;;8.45;84.57;101285.14;1633757;87;21140;-77
2023/01/03 01:53:17;;;;;;;2.40;0.90;;;;;;;8.35;84.96;101287.00;1637565;87;21101;-77
2023/01/03 01:55:52;;;;;;;6.30;0.97;;;;;;;8.29;85.38;101292.31;1608518;88;21145;-77
2023/01/03 01:58:25;;;;;;;2.67;0.70;;;;;;;8.20;85.54;101289.80;1590776;88;21074;-77
2023/01/03 02:00:53;;;;;;;3.37;0.60;;;;;;;8.11;85.88;101282.95;1572164;89;21121;-78
2023/01/03 02:03:21;;;;;;;3.97;0.67;;;;;;;8.01;85.85;101286.13;1590037;89;21063;-77
2023/01/03 02:05:53;;;;;;;4.10;0.70;;;;;;;7.93;86.08;101289.28;1589393;88;21097;-76
2023/01/03 02:08:21;;;;;;;2.40;0.60;;;;;;;7.89;86.44;101289.32;1589403;89;21974;-76
2023/01/03 02:11:16;;;;;;;4.07;0.80;;;;;;;7.87;86.65;101301.52;1589598;88;21153;-76
2023/01/03 02:14:23;;;;;;;4.10;0.80;;;;;;;7.85;86.78;101294.17;1588057;88;21129;-77
2023/01/03 02:17:11;;;;;;;5.57;0.90;;;;;;;7.82;87.07;101297.67;1570185;89;21238;-76
2023/01/03 02:20:10;;;;;;;3.80;0.67;;;;;;;7.81;87.39;101302.45;1596311;88;21198;-76
2023/01/03 02:23:17;;;;;;;1.83;0.50;;;;;;;7.81;87.34;101305.95;1596591;88;21161;-76
2023/01/03 02:26:18;;;;;;;4.00;0.70;;;;;;;7.81;87.45;101305.06;1596079;88;21105;-75
2023/01/03 02:29:03;;;;;;;2.30;1.00;;;;;;;7.82;87.86;101304.20;1643917;86;21087;-76
2023/01/03 02:32:14;;;;;;;3.87;0.90;;;;;;;7.85;88.03;101321.58;1644347;85;21079;-75
2023/01/03 02:35:04;;;;;;;2.55;0.88;;;;;;;7.87;88.23;101326.31;1643299;85;21146;-75
2023/01/03 02:37:43;;;;;;;2.03;0.90;;;;;;;7.88;88.51;101329.37;1639354;86;21127;-75
2023/01/03 02:40:24;;;;;;;2.70;1.27;;;;;;;7.91;88.66;101331.94;1616326;86;21091;-75
2023/01/03 02:43:14;;;;;;;3.40;1.33;;;;;;;7.93;88.74;101331.49;1643706;85;21069;-77
2023/01/03 02:46:04;;;;;;;;;;;;;;;7.95;89.02;101331.01;1647107;85;21096;-75
2023/01/03 02:48:57;;;;;;;4.22;1.70;;;;;;;7.96;89.05;101326.23;1642697;85;20521;-75
2023/01/03 02:51:39;;;;;;;4.43;1.80;;;;;;;7.96;89.15;101327.54;1627222;86;21784;-75
2023/01/03 02:54:12;;;;;;;3.27;1.70;;;;;;;7.96;89.21;101326.23;1642712;85;21060;-75
2023/01/03 02:56:54;;;;;;;3.77;1.73;;;;;;;7.96;89.15;101332.31;1642115;86;21098;-75
2023/01/03 02:59:29;;;;;;;3.90;1.80;;;;;;;7.94;89.07;101335.82;1640604;85;21101;-75
2023/01/03 03:01:57;;;;;;;1.90;1.50;;;;;;;7.92;89.17;101328.44;1614871;86;21083;-75
2023/01/03 03:04:25;;;;;;;3.33;1.57;;;;;;;7.92;89.21;101332.35;1644390;85;21331;-75
2023/01/03 03:07:17;;;;;;;4.07;1.80;;;;;;;7.89;89.15;101337.16;1641896;85;21086;-75
2023/01/03 03:13:15;;;;;;;3.90;1.70;;;;;;;7.87;89.35;101337.64;1642047;85;21063;-75
2023/01/03 03:15:09;;;;;;;1.80;1.40;;;;;;;7.86;89.31;101338.95;1626319;86;21139;-75
2023/01/03 03:17:39;;;;;;;1.90;1.10;;;;;;;7.85;89.22;101348.53;1635798;86;21122;-75
2023/01/03 03:26:12;;;;;;;4.43;1.80;;;;;;;7.75;89.11;101357.33;1598453;89;21107;-75
2023/01/03 03:28:43;;;;;;;3.27;1.63;;;;;;;7.71;89.22;101363.48;1599135;88;21183;-75
2023/01/03 03:31:30;;;;;;;2.70;1.50;;;;;;;7.67;89.32;101369.14;1598769;89;21162;-75
2023/01/03 03:34:08;;;;;;;5.27;1.70;;;;;;;7.65;89.60;101368.31;1597614;89;21144;-75
2023/01/03 03:37:01;;;;;;;2.30;1.50;;;;;;;7.62;89.70;101364.44;1636342;86;21844;-75
2023/01/03 03:45:42;;;;;;;1.67;1.47;;;;;;;7.55;89.93;101366.21;1632787;86;21238;-75
2023/01/03 03:48:29;;;;;;;4.20;1.90;;;;;;;7.54;90.04;101370.16;1632896;86;21071;-75
2023/01/03 03:51:04;;;;;;;3.83;1.40;;;;;;;7.53;90.19;101373.18;1633953;86;21077;-75
2023/01/03 03:53:35;;;;;;;3.13;1.60;;;;;;;7.50;89.95;101388.00;1632791;87;21876;-75
2023/01/03 03:56:10;;;;;;;1.50;1.40;;;;;;;7.46;90.07;101381.95;1635631;86;21167;-75
2023/01/03 03:58:43;;;;;;;2.70;1.80;;;;;;;7.45;90.10;101384.56;1633638;86;21129;-79
2023/01/03 04:01:14;;;;;;;3.10;1.70;;;;;;;7.43;90.13;101386.31;1634844;86;21118;-76
2023/01/03 04:03:44;;;;;;;2.00;1.60;;;;;;;7.43;90.26;101397.64;1634235;86;21138;-75
2023/01/03 04:06:25;;;;;;;3.13;1.80;;;;;;;7.44;90.20;101398.50;1633191;86;21066;-76
2023/01/03 04:08:52;;;;;;;4.13;2.10;;;;;;;7.42;90.22;101393.72;1634676;86;21385;-75
2023/01/03 04:11:20;;;;;;;2.90;1.70;;;;;;;7.41;90.38;101399.38;1634382;86;21818;-76
2023/01/03 04:13:47;;;;;;;2.57;1.43;;;;;;;7.41;90.21;101397.22;1633762;86;21122;-76
2023/01/03 04:16:14;;;;;;;4.93;1.90;;;;;;;7.43;90.38;101400.66;1604197;86;20944;-76
2023/01/03 04:18:41;;;;;;;3.80;1.87;;;;;;;7.44;90.55;101407.18;1599397;86;21087;-76
2023/01/03 04:21:09;;;;;;;4.20;2.20;;;;;;;7.47;90.65;101411.06;1599530;86;21103;-75
2023/01/03 04:23:36;;;;;;;4.43;1.87;;;;;;;7.49;90.60;101414.98;1598399;86;21608;-76
2023/01/03 04:26:04;;;;;;;3.47;1.97;;;;;;;7.49;90.67;101417.59;1602010;87;21128;-77
2023/01/03 04:28:31;;;;;;;3.13;1.90;;;;;;;7.50;90.70;101414.95;1600977;86;21115;-76
2023/01/03 04:30:58;;;;;;;3.17;1.90;;;;;;;7.50;90.66;101424.08;1598482;86;21110;-76
2023/01/03 04:33:25;;;;;;;3.90;2.20;;;;;;;7.51;90.76;101423.22;1598674;87;21070;-81
2023/01/03 04:35:52;;;;;;;4.97;2.60;;;;;;;7.52;90.75;101435.38;1598352;86;21866;-76
2023/01/03 04:38:20;;;;;;;4.80;2.40;;;;;;;7.53;90.72;101425.80;1597927;86;21497;-76
2023/01/03 04:40:47;;;;;;;3.30;2.40;;;;;;;7.55;90.89;101436.66;1598239;86;21082;-79
2023/01/03 04:46:00;;;;;;;3.90;2.53;;;;;;;7.58;90.90;101440.98;1616385;86;21650;-76
2023/01/03 04:48:27;;;;;;;5.20;2.90;;;;;;;7.59;90.96;101439.69;1615843;86;21212;-76
2023/01/03 04:50:58;;;;;;;4.83;3.20;;;;;;;7.62;91.04;101441.41;1607319;87;21043;-76
2023/01/03 04:53:26;;;;;;;4.75;2.98;;;;;;;7.63;91.01;101453.56;1605684;87;21071;-77
2023/01/03 04:55:58;;;;;;;4.97;3.07;;;;;;;7.64;90.99;101453.12;1612684;87;21568;-77
2023/01/03 04:58:25;;;;;;;5.03;2.97;;;;;;;7.65;91.01;101442.69;1610893;86;21075;-76
2023/01/03 05:01:02;;;;;;;4.10;3.00;;;;;;;7.67;91.07;101442.65;1608438;87;21198;-80
2023/01/03 05:03:30;;;;;;;3.67;3.17;;;;;;;7.68;90.94;101448.31;1603193;86;21091;-76
2023/01/03 05:06:02;;;;;;;4.93;3.73;;;;;;;7.69;91.01;101441.76;1598949;87;22646;-76
2023/01/03 05:08:29;;;;;;;5.13;3.73;;;;;;;7.70;90.97;101442.17;1616476;86;21926;-81
2023/01/03 05:10:57;;;;;;;3.83;3.17;;;;;;;7.70;90.79;101445.23;1598554;87;21063;-76
2023/01/03 05:13:24;;;;;;;4.00;3.03;;;;;;;7.69;90.81;101446.98;1615502;87;21220;-77
2023/01/03 05:15:51;;;;;;;4.17;3.17;;;;;;;7.67;90.72;101451.78;1625784;86;21003;-76
2023/01/03 05:18:18;;;;;;;3.70;3.10;;;;;;;7.65;90.64;101452.23;1641894;86;21075;-76
2023/01/03 05:26:20;;;;;;;4.87;3.33;;;;;;;7.57;90.46;101467.97;1642813;85;21123;-76
2023/01/03 05:28:52;;;;;;;4.90;3.50;;;;;;;7.55;90.55;101476.23;1642007;86;21119;-76
2023/01/03 05:31:20;;;;;;;6.57;3.97;;;;;;;7.54;90.70;101474.07;1642171;86;21726;-76
2023/01/03 05:33:47;;;;;;;5.10;3.40;;;;;;;7.54;90.61;101482.34;1642472;85;21087;-76
2023/01/03 05:36:14;;;;;;;5.13;3.73;;;;;;;7.52;90.56;101484.95;1644329;85;21634;-76
2023/01/03 05:38:41;;;;;;;4.23;3.50;;;;;;;7.50;90.42;101489.30;1642227;86;22767;-77
2023/01/03 05:41:09;;;;;;;3.90;3.23;;;;;;;7.46;90.39;101491.97;1642246;85;21064;-76
2023/01/03 05:43:37;;;;;;;7.17;3.77;;;;;;;7.44;90.36;101495.88;1642535;86;21066;-76
2023/01/03 05:46:04;;;;;;;4.77;3.27;;;;;;;7.42;90.25;101498.92;1642232;85;21092;-77
2023/01/03 05:48:32;;;;;;;6.63;3.40;;;;;;;7.41;90.18;101500.25;1643051;86;21139;-76
2023/01/03 05:50:59;;;;;;;5.80;4.10;;;;;;;7.37;90.08;101505.90;1642647;85;21126;-77
2023/01/03 05:53:26;;;;;;;5.73;3.90;;;;;;;7.33;89.92;101510.28;1643789;86;21115;-76
2023/01/03 05:55:54;;;;;;;4.27;3.33;;;;;;;7.28;89.77;101509.88;1643615;86;21651;-75
2023/01/03 05:58:21;;;;;;;6.70;4.10;;;;;;;7.26;89.86;101518.14;1642251;85;21083;-75
2023/01/03 06:00:49;;;;;;;5.30;4.10;;;;;;;7.22;89.71;101520.34;1645170;85;21072;-74
2023/01/03 06:03:16;;;;;;;4.40;3.53;;;;;;;7.15;89.56;101526.05;1616113;86;21143;-75
2023/01/03 06:05:43;;;;;;;5.73;4.10;;;;;;;7.12;89.64;101524.73;1644410;85;21115;-75
2023/01/03 06:08:10;;;;;;;4.90;4.00;;;;;;;7.08;89.55;101528.23;1642644;85;21060;-83
2023/01/03 06:10:39;;;;;;;6.03;4.00;;;;;;;7.02;89.53;101525.22;1643704;85;21660;-81
2023/01/03 06:13:06;;;;;;;6.20;4.27;;;;;;;6.97;89.44;101533.49;1644174;86;21079;-83
2023/01/03 06:15:34;;;;;;;6.57;4.67;;;;;;;6.93;89.47;101540.47;1640660;85;21946;-78
2023/01/03 06:18:01;;;;;;;5.70;3.70;;;;;;;6.88;89.39;101542.22;1605656;89;21077;-81
2023/01/03 06:20:29;;;;;;;6.03;3.80;;;;;;;6.84;89.50;101546.99;1589632;88;21106;-77
2023/01/03 06:22:56;;;;;;;6.03;4.50;;;;;;;6.81;89.52;101544.84;1590025;89;21091;-82
2023/01/03 06:25:24;;;;;;;5.30;3.93;;;;;;;6.75;89.57;101540.95;1588609;88;21117;-78
2023/01/03 06:27:51;;;;;;;7.10;3.83;;;;;;;6.74;89.46;101547.92;1588468;89;22152;-77
2023/01/03 06:30:19;;;;;;;6.27;3.47;;;;;;;6.73;89.57;101550.52;1588220;89;21086;-80
2023/01/03 06:32:47;;;;;;;4.90;3.80;;;;;;;6.74;89.72;101553.13;1588883;88;21613;-79
2023/01/03 06:35:14;;;;;;;6.07;4.20;;;;;;;6.75;89.76;101559.20;1588419;89;21097;-80
2023/01/03 06:37:41;;;;;;;5.83;4.10;;;;;;;6.77;89.79;101560.07;1588488;88;21804;-79
2023/01/03 06:40:09;;;;;;;6.30;3.93;;;;;;;6.78;89.86;101565.70;1588771;88;21135;-79
2023/01/03 06:42:41;;;;;;;8.10;4.47;;;;;;;6.80;89.87;101568.73;1586809;88;21125;-80
2023/01/03 06:53:33;;;;;;;6.73;4.20;;;;;;;6.92;89.82;101589.98;1589829;88;21296;-74
2023/01/03 06:56:00;;;;;;;6.57;4.20;;;;;;;6.95;89.62;101597.78;1589852;88;21536;-78
2023/01/03 06:58:28;;;;;;;8.57;5.20;;;;;;;6.96;89.59;101602.15;1589940;88;21184;-79
2023/01/03 07:00:57;;;;;;;9.97;5.93;;;;;;;6.99;89.60;101609.09;1591175;88;21136;-78
2023/01/03 07:03:25;;;;;;;7.10;4.92;;;;;;;6.99;89.59;101609.95;1587781;88;21111;-82
2023/01/03 07:05:52;;;;;;;7.70;4.33;;;;;;;7.00;89.62;101616.03;1589693;88;21235;-81
2023/01/03 07:08:19;;;;;;;5.93;4.00;;;;;;;7.00;89.63;101623.41;1636641;85;21111;-78
2023/01/03 07:10:46;;;;;;;6.17;4.17;;;;;;;6.98;89.59;101623.84;1635627;85;21080;-78
2023/01/03 07:15:59;;;;;;;9.77;5.90;;;;;;;6.95;89.81;101629.51;1601590;87;21103;-78
2023/01/03 07:18:26;;;;;;;7.57;4.57;;;;;;;6.90;89.83;101626.49;1603797;87;21166;-79
2023/01/03 07:20:53;;;;;;;10.10;5.50;;;;;;;6.87;90.05;101627.80;1615422;87;21010;-80
2023/01/03 07:23:20;;;;;;;7.50;5.20;;;;;;;6.84;89.96;101625.62;1603689;87;21102;-79
2023/01/03 07:25:47;;;;;;;9.53;4.40;;;;;;;6.83;90.17;101637.78;1601320;86;21077;-78
2023/01/03 07:28:16;;;;;;;5.23;3.87;;;;;;;6.78;90.41;101638.66;1600705;87;21104;-78
2023/01/03 07:30:45;;;;;;;7.60;4.13;;;;;;;6.74;90.22;101645.62;1601218;87;21165;-78
2023/01/03 07:33:15;;;;;;;6.57;3.77;;;;;;;6.70;90.39;101646.05;1597267;88;20975;-79
2023/01/03 07:35:42;;;;;;;6.12;4.40;;;;;;;6.68;90.49;101645.64;1602498;87;21078;-84
2023/01/03 07:38:12;;;;;;;6.90;4.00;;;;;;;6.64;90.71;101651.70;1618243;87;21097;-79
2023/01/03 07:40:39;;;;;;;4.85;3.20;;;;;;;6.59;90.79;101648.23;1596569;88;22233;-79
2023/01/03 07:45:56;;;;;;;5.00;3.47;;;;;;;6.55;91.12;101654.33;1582167;87;21109;-77
2023/01/03 07:48:23;;;;;;;7.83;5.20;;;;;;;6.54;91.60;101655.17;1595899;87;21403;-76
2023/01/03 07:50:57;;;;;;;8.97;4.90;;;;;;;6.53;91.50;101658.22;1597933;87;21065;-76
2023/01/03 07:53:25;;;;;;;8.17;4.83;;;;;;;6.51;91.52;101656.48;1608147;87;21141;-75
2023/01/03 07:55:52;;;;;;;7.10;5.83;;;;;;;6.48;91.40;101654.74;1627048;87;21141;-76
2023/01/03 07:58:19;;;;;;;9.30;6.23;;;;;;;6.45;91.37;101655.61;1574834;89;21541;-76
2023/01/03 08:00:47;;;;;;;9.93;6.73;;;;;;;6.42;91.29;101663.42;1596718;88;21089;-75
2023/01/03 08:03:14;;;;;;;18.43;10.67;;;;;;;6.38;91.31;101668.22;1598595;87;21122;-75
2023/01/03 08:05:41;;;;;;;17.77;9.83;;;;;;;6.36;91.26;101669.08;1613237;87;21128;-75
2023/01/03 08:08:09;;;;;;;28.53;15.83;;;;;;;6.33;91.26;101669.94;1604122;87;21151;-75
2023/01/03 08:13:23;;;;;;;12.03;7.70;;;;;;;6.30;91.29;101672.55;1566384;89;21100;-75
2023/01/03 08:15:54;;;;;;;11.97;7.17;;;;;;;6.30;91.15;101676.89;1573056;88;21535;-75
2023/01/03 08:18:27;;;;;;;9.00;5.37;;;;;;;6.28;91.32;101687.29;1593065;89;21109;-74
2023/01/03 08:20:56;;;;;;;7.77;4.80;;;;;;;6.30;91.25;101695.98;1603431;88;21564;-74
2023/01/03 08:23:25;;;;;;;6.22;3.67;;;;;;;6.29;91.26;101690.35;1605197;87;21031;-75
2023/01/03 08:26:07;;;;;;;5.20;3.53;;;;;;;6.31;91.40;101694.23;1596358;87;21563;-74
2023/01/03 08:28:35;;;;;;;6.13;3.60;;;;;;;6.34;91.45;101695.55;1603682;87;21091;-74
2023/01/03 08:31:10;;;;;;;3.87;2.87;;;;;;;6.37;91.39;101702.91;1602682;86;21089;-74
2023/01/03 08:33:48;;;;;;;6.23;2.43;;;;;;;6.40;91.43;101708.56;1596683;88;21155;-75
2023/01/03 08:36:17;;;;;;;4.27;2.23;;;;;;;6.43;91.39;101707.30;1618532;87;21078;-75
2023/01/03 08:38:49;;;;;;;5.27;2.77;;;;;;;6.44;91.24;101709.02;1612809;87;21085;-75
2023/01/03 08:41:21;;;;;;;4.83;3.00;;;;;;;6.43;91.47;101713.37;1595679;87;21618;-76
2023/01/03 08:43:49;;;;;;;5.13;2.73;;;;;;;6.43;91.30;101717.27;1596502;87;21304;-78
2023/01/03 08:46:17;;;;;;;5.10;2.97;;;;;;;6.44;91.44;101719.00;1596096;87;21171;-77
2023/01/03 08:48:45;;;;;;;6.37;2.50;;;;;;;6.45;91.51;101718.56;1606886;88;21078;-77
2023/01/03 08:51:12;;;;;;;5.23;2.80;;;;;;;6.44;91.43;101721.60;1605459;86;21077;-76
2023/01/03 08:53:40;;;;;;;6.27;2.87;;;;;;;6.46;91.49;101725.52;1596497;87;21538;-75
2023/01/03 08:56:08;;;;;;;9.63;5.23;;;;;;;6.46;91.56;101735.95;1601274;88;21042;-76
2023/01/03 08:58:40;;;;;;;6.00;3.50;;;;;;;6.45;91.46;101740.25;1596403;88;21544;-75
2023/01/03 09:01:08;;;;;;;9.53;5.30;;;;;;;6.44;91.50;101740.27;1605828;88;21679;-76
2023/01/03 09:03:35;;;;;;;14.37;6.67;;;;;;;6.43;91.53;101742.45;1609200;87;21085;-75
2023/01/03 09:06:05;;;;;;;19.50;7.80;;;;;;;6.42;91.73;101741.56;1610348;88;21134;-75
2023/01/03 09:08:35;;;;;;;31.67;14.00;;;;;;;6.44;91.71;101749.39;1604929;87;21659;-75
2023/01/03 09:11:07;;;;;;;12.23;6.53;;;;;;;6.45;91.70;101752.42;1603649;87;22228;-75
2023/01/03 09:13:35;;;;;;;7.37;3.73;;;;;;;6.46;91.59;101749.83;1610363;87;21058;-75
2023/01/03 09:16:10;;;;;;;4.10;3.20;;;;;;;6.51;91.72;101750.25;1599987;86;22220;-75
2023/01/03 09:18:39;;;;;;;7.27;3.93;;;;;;;6.56;91.99;101753.30;1605444;88;21092;-75
2023/01/03 09:21:07;;;;;;;9.80;4.65;;;;;;;6.61;92.02;101759.83;1588643;88;21148;-75
2023/01/03 09:23:36;;;;;;;5.90;3.27;;;;;;;6.66;91.96;101753.75;1589998;88;22102;-75
2023/01/03 09:26:05;;;;;;;4.83;2.70;;;;;;;6.72;92.05;101758.54;1588743;89;21169;-75
2023/01/03 09:28:33;;;;;;;3.73;2.17;;;;;;;6.77;92.09;101758.97;1636317;87;21071;-75
2023/01/03 09:31:01;;;;;;;5.27;2.83;;;;;;;6.82;92.10;101763.76;1634266;87;21130;-75
2023/01/03 09:33:28;;;;;;;3.90;2.83;;;;;;;6.87;92.01;101760.72;1635969;87;21787;-75
2023/01/03 09:35:55;;;;;;;6.93;3.77;;;;;;;6.90;91.96;101752.91;1635395;86;21435;-75
2023/01/03 09:38:26;;;;;;;9.33;4.93;;;;;;;6.93;91.87;101762.02;1634989;87;21107;-75
2023/01/03 09:41:09;;;;;;;7.13;3.43;;;;;;;6.98;91.98;101759.39;1634614;87;21107;-75
2023/01/03 09:43:44;;;;;;;4.90;3.13;;;;;;;7.01;91.89;101766.34;1634840;86;21084;-75
2023/01/03 09:46:21;;;;;;;4.87;3.17;;;;;;;7.03;92.01;101765.91;1636379;87;21195;-75
2023/01/03 09:48:51;;;;;;;6.27;4.07;;;;;;;7.07;91.70;101770.28;1634772;87;21155;-76
2023/01/03 10:03:44;;;;;;;7.00;3.80;;;;;;;7.33;91.17;101764.58;1634219;87;21049;-75
2023/01/03 10:06:50;;;;;;;7.37;4.30;;;;;;;7.35;91.19;101761.98;1636245;87;21378;-75
2023/01/03 10:09:38;;;;;;;5.17;4.07;;;;;;;7.41;91.14;101755.44;1633780;87;22114;-75
2023/01/03 10:12:37;;;;;;;7.07;4.17;;;;;;;7.48;90.85;101760.19;1606765;88;21103;-75
2023/01/03 10:15:19;;;;;;;6.97;4.50;;;;;;;7.47;90.60;101757.16;1589668;89;21622;-75
2023/01/03 10:18:05;;;;;;;7.63;4.00;;;;;;;7.50;90.56;101759.76;1580625;88;21154;-75
2023/01/03 10:20:47;;;;;;;8.17;4.33;;;;;;;7.52;90.49;101751.50;1576734;90;21178;-75
2023/01/03 10:23:14;;;;;;;8.57;4.43;;;;;;;7.52;90.12;101758.02;1576720;89;21163;-76
2023/01/03 10:25:45;;;;;;;8.93;4.60;;;;;;;7.52;90.19;101758.89;1577227;90;22493;-76
2023/01/03 10:28:26;;;;;;;6.83;4.67;;;;;;;7.74;90.23;101755.77;1616585;88;21079;-75
2023/01/03 10:31:13;;;;;;;;;;;;;;;8.09;90.24;101749.95;1619949;87;21114;-76
2023/01/03 10:33:45;;;;;;;6.80;3.77;;;;;;;8.46;89.85;101751.96;1618425;87;20176;-76
2023/01/03 10:36:16;;;;;;;6.67;4.40;;;;;;;8.75;89.45;101756.10;1616680;88;21119;-76
2023/01/03 10:38:44;;;;;;;7.23;3.70;;;;;;;8.97;89.28;101755.48;1616686;88;21596;-76
2023/01/03 10:41:38;;;;;;;4.20;3.27;;;;;;;8.99;88.83;101761.13;1617056;87;21075;-76
2023/01/03 10:44:05;;;;;;;4.93;3.40;;;;;;;8.93;88.23;101758.58;1617233;88;21774;-76
2023/01/03 10:46:32;;;;;;;6.07;3.80;;;;;;;8.78;87.60;101759.55;1591245;88;21083;-75
2023/01/03 10:49:20;;;;;;;8.37;3.87;;;;;;;8.65;87.57;101758.80;1577922;89;21559;-76
2023/01/03 10:51:59;;;;;;;4.97;3.30;;;;;;;8.52;87.30;101758.89;1576900;90;21106;-76
2023/01/03 10:54:55;;;;;;;6.20;3.30;;;;;;;8.39;87.48;101762.88;1577269;90;21548;-76
2023/01/03 10:57:45;;;;;;;5.10;3.17;;;;;;;8.20;87.09;101760.80;1576851;90;21178;-75
2023/01/03 11:00:37;;;;;;;4.33;3.00;;;;;;;8.01;87.00;101755.24;1577193;90;21580;-76
2023/01/03 11:03:15;;;;;;;4.67;3.40;;;;;;;7.82;86.76;101756.61;1576786;90;21149;-76
2023/01/03 11:05:46;;;;;;;5.53;3.10;;;;;;;7.67;86.76;101761.02;1577178;89;21091;-76
2023/01/03 11:08:25;;;;;;;6.00;3.13;;;;;;;7.80;87.16;101760.97;1576967;90;21096;-76
2023/01/03 11:10:57;;;;;;;5.90;4.03;;;;;;;8.07;87.26;101758.27;1575481;89;21142;-75
2023/01/03 11:13:34;;;;;;;5.33;3.13;;;;;;;8.39;87.43;101752.87;1576274;90;21081;-76
2023/01/03 11:16:05;;;;;;;5.00;3.10;;;;;;;8.73;87.06;101753.52;1557367;90;21127;-77
2023/01/03 11:18:32;;;;;;;5.33;3.27;;;;;;;9.05;86.95;101754.53;1599452;87;21112;-77
2023/01/03 11:21:22;;;;;;;3.97;2.70;;;;;;;9.36;86.80;101755.09;1608460;87;21498;-78
2023/01/03 11:24:29;;;;;;;5.00;3.40;;;;;;;9.70;86.30;101746.00;1604347;86;22915;-80
2023/01/03 11:27:14;;;;;;;4.40;3.20;;;;;;;10.14;85.49;101760.30;1604506;86;21051;-79
2023/01/03 11:30:20;;;;;;;6.58;3.27;;;;;;;10.69;84.41;101767.39;1604008;87;21069;-79
2023/01/03 11:32:59;;;;;;;5.35;2.85;;;;;;;11.05;83.20;101766.37;1601810;87;21088;-79
2023/01/03 11:36:00;;;;;;;4.67;3.02;;;;;;;11.43;81.97;101772.25;1605158;86;22095;-75
2023/01/03 11:39:01;;;;;;;4.15;2.80;;;;;;;11.52;81.13;101763.33;1608409;86;21151;-81
2023/01/03 11:42:10;;;;;;;3.60;2.50;;;;;;;10.89;80.49;101756.16;1604388;87;21068;-77
2023/01/03 11:45:26;;;;;;;4.75;2.90;;;;;;;10.43;80.96;101757.31;1644730;85;21128;-76
2023/01/03 11:48:35;;;;;;;2.92;2.40;;;;;;;10.12;80.45;101749.85;1642048;85;21070;-76
2023/01/03 11:51:27;;;;;;;3.65;2.70;;;;;;;10.23;80.71;101752.33;1641493;85;21351;-79
2023/01/03 11:54:04;;;;;;;3.55;2.80;;;;;;;10.22;80.46;101750.58;1643002;85;21203;-77
2023/01/03 11:56:46;;;;;;;6.10;3.02;;;;;;;9.95;80.29;101749.19;1642565;85;21067;-79
2023/01/03 11:59:41;;;;;;;3.52;2.50;;;;;;;10.02;80.54;101749.09;1642139;85;21071;-84
2023/01/03 12:02:37;;;;;;;3.83;2.47;;;;;;;9.99;80.53;101747.83;1641599;85;21087;-79
2023/01/03 12:05:30;;;;;;;3.02;2.30;;;;;;;10.19;80.63;101742.76;1641354;85;21620;-83
2023/01/03 12:08:27;;;;;;;4.47;2.22;;;;;;;10.45;80.40;101741.98;1642103;85;21825;-77
2023/01/03 12:11:26;;;;;;;3.83;2.85;;;;;;;10.69;80.20;101745.10;1645346;85;21656;-77
2023/01/03 12:14:17;;;;;;;5.20;2.60;;;;;;;10.96;80.03;101735.05;1642022;85;21060;-82
2023/01/03 12:16:55;;;;;;;2.85;2.35;;;;;;;10.87;79.04;101730.38;1643326;85;21914;-76
2023/01/03 12:19:55;;;;;;;5.87;2.98;;;;;;;10.57;79.00;101733.51;1643000;85;21352;-78
2023/01/03 12:22:30;;;;;;;4.53;2.87;;;;;;;10.38;78.61;101736.84;1642470;86;21128;-79
2023/01/03 12:25:36;;;;;;;3.58;2.60;;;;;;;10.09;78.45;101739.83;1614989;86;21106;-78
2023/01/03 12:28:35;;;;;;;5.83;2.55;;;;;;;9.77;78.09;101738.52;1642283;85;21100;-77
2023/01/03 12:31:23;;;;;;;6.03;3.70;;;;;;;9.54;78.46;101740.96;1615948;86;21075;-77
2023/01/03 12:34:20;;;;;;;5.33;3.05;;;;;;;9.47;78.88;101735.36;1643615;86;21769;-78
2023/01/03 12:37:07;;;;;;;5.80;3.27;;;;;;;9.36;78.82;101730.69;1643228;85;21198;-78
2023/01/03 12:40:09;;;;;;;4.30;3.00;;;;;;;9.31;79.03;101729.86;1642351;85;21086;-79
2023/01/03 12:43:01;;;;;;;4.60;2.40;;;;;;;9.23;78.70;101732.58;1581374;88;21366;-79
2023/01/03 12:46:19;;;;;;;3.90;2.70;;;;;;;9.23;78.80;101731.69;1643496;85;21103;-79
2023/01/03 12:49:22;;;;;;;4.05;2.40;;;;;;;9.31;78.84;101728.14;1643578;85;21630;-78
2023/01/03 12:51:50;;;;;;;5.47;2.80;;;;;;;9.42;78.88;101734.53;1642280;85;21996;-78
2023/01/03 12:54:25;;;;;;;3.55;2.67;;;;;;;9.57;79.07;101729.14;1642503;85;21079;-78
2023/01/03 12:57:07;;;;;;;4.50;2.50;;;;;;;9.67;78.98;101730.33;1642895;85;21095;-76
2023/01/03 13:00:20;;;;;;;4.87;2.80;;;;;;;9.59;78.70;101727.38;1632445;85;21541;-82
2023/01/03 13:02:58;;;;;;;3.30;2.07;;;;;;;9.57;78.69;101720.44;1642448;86;21126;-76
2023/01/03 13:05:52;;;;;;;4.95;2.62;;;;;;;9.70;78.45;101724.64;1645218;85;21359;-77
2023/01/03 13:08:36;;;;;;;4.33;2.47;;;;;;;9.66;78.12;101727.30;1642104;85;20979;-78